地図

経路データ

SID SEASON NUMBER BASIN SUBBASIN NAME ISO_TIME NATURE LAT LON WMO_WIND WMO_PRES WMO_AGENCY TRACK_TYPE DIST2LAND LANDFALL IFLAG USA_AGENCY USA_ATCF_ID USA_LAT USA_LON USA_RECORD USA_STATUS USA_WIND USA_PRES USA_SSHS USA_R34_NE USA_R34_SE USA_R34_SW USA_R34_NW USA_R50_NE USA_R50_SE USA_R50_SW USA_R50_NW USA_R64_NE USA_R64_SE USA_R64_SW USA_R64_NW USA_POCI USA_ROCI USA_RMW USA_EYE TOKYO_LAT TOKYO_LON TOKYO_GRADE TOKYO_WIND TOKYO_PRES TOKYO_R50_DIR TOKYO_R50_LONG TOKYO_R50_SHORT TOKYO_R30_DIR TOKYO_R30_LONG TOKYO_R30_SHORT TOKYO_LAND CMA_LAT CMA_LON CMA_CAT CMA_WIND CMA_PRES HKO_LAT HKO_LON HKO_CAT HKO_WIND HKO_PRES NEWDELHI_LAT NEWDELHI_LON NEWDELHI_GRADE NEWDELHI_WIND NEWDELHI_PRES NEWDELHI_CI NEWDELHI_DP NEWDELHI_POCI REUNION_LAT REUNION_LON REUNION_TYPE REUNION_WIND REUNION_PRES REUNION_TNUM REUNION_CI REUNION_RMW REUNION_R34_NE REUNION_R34_SE REUNION_R34_SW REUNION_R34_NW REUNION_R50_NE REUNION_R50_SE REUNION_R50_SW REUNION_R50_NW REUNION_R64_NE REUNION_R64_SE REUNION_R64_SW REUNION_R64_NW BOM_LAT BOM_LON BOM_TYPE BOM_WIND BOM_PRES BOM_TNUM BOM_CI BOM_RMW BOM_R34_NE BOM_R34_SE BOM_R34_SW BOM_R34_NW BOM_R50_NE BOM_R50_SE BOM_R50_SW BOM_R50_NW BOM_R64_NE BOM_R64_SE BOM_R64_SW BOM_R64_NW BOM_ROCI BOM_POCI BOM_EYE BOM_POS_METHOD BOM_PRES_METHOD NADI_LAT NADI_LON NADI_CAT NADI_WIND NADI_PRES WELLINGTON_LAT WELLINGTON_LON WELLINGTON_WIND WELLINGTON_PRES DS824_LAT DS824_LON DS824_STAGE DS824_WIND DS824_PRES TD9636_LAT TD9636_LON TD9636_STAGE TD9636_WIND TD9636_PRES TD9635_LAT TD9635_LON TD9635_WIND TD9635_PRES TD9635_ROCI NEUMANN_LAT NEUMANN_LON NEUMANN_CLASS NEUMANN_WIND NEUMANN_PRES MLC_LAT MLC_LON MLC_CLASS MLC_WIND MLC_PRES USA_GUST BOM_GUST BOM_GUST_PER REUNION_GUST REUNION_GUST_PER USA_SEAHGT USA_SEARAD_NE USA_SEARAD_SE USA_SEARAD_SW USA_SEARAD_NW STORM_SPEED STORM_DIR
1903278N19086 1903 52 NI BB NOT_NAMED 1903-10-05 00:00:00 TS 19.1000 86.3000 main 91 67 _________O____ -1 19.1000 86.3000 TC 34 4 340
1903278N19086 1903 52 NI BB NOT_NAMED 1903-10-05 03:00:00 TS 19.2667 86.2400 main 67 44 _________PO___ -1 19.3500 86.2100 TC 33 19.1000 86.3000 2 4 338
1903278N19086 1903 52 NI BB NOT_NAMED 1903-10-05 06:00:00 TS 19.5001 86.1283 main 44 22 _________OP___ -1 19.6000 86.1000 TC 32 19.3502 86.1708 2 5 334
1903278N19086 1903 52 NI BB NOT_NAMED 1903-10-05 09:00:00 TS 19.7430 85.9942 main 22 0 _________PP___ -1 19.8500 85.9575 TC 31 19.6002 86.0430 2 5 332
1903278N19086 1903 52 NI BB NOT_NAMED 1903-10-05 12:00:00 TS 19.9751 85.8594 main 0 0 _________OP___ -1 20.1000 85.8000 TC 30 19.8502 85.9188 2 5 332
1903278N19086 1903 52 NI BB NOT_NAMED 1903-10-05 15:00:00 TS 20.2250 85.7250 main 0 0 _________PO___ -1 20.3500 85.6500 TC 30 20.1000 85.8000 1 6 333
1903278N19086 1903 52 NI BB NOT_NAMED 1903-10-05 18:00:00 TS 20.4749 85.5926 main 0 0 _________OP___ -1 20.6000 85.5000 TC 30 20.3498 85.6852 1 6 334
1903278N19086 1903 52 NI BB NOT_NAMED 1903-10-05 21:00:00 TS 20.7210 85.4658 main 0 0 _________PP___ -1 20.8424 85.3723 TC 30 20.5996 85.5593 1 6 331
1903278N19086 1903 52 NI BB NOT_NAMED 1903-10-06 00:00:00 TS 20.9748 85.3019 main 0 0 _________OP___ -1 21.1000 85.2000 TC 30 20.8497 85.4038 1 7 325
1903278N19086 1903 52 NI BB NOT_NAMED 1903-10-06 03:00:00 TS 21.2538 85.0650 main 0 0 _________PO___ -1 21.4075 84.9301 TC 30 21.1000 85.2000 1 7 318
1903278N19086 1903 52 NI BB NOT_NAMED 1903-10-06 06:00:00 TS 21.5250 84.7707 main 0 0 _________OP___ -1 21.7000 84.6000 TC 30 21.3499 84.9414 1 8 311
1903278N19086 1903 52 NI BB NOT_NAMED 1903-10-06 09:00:00 TS 21.7536 84.4485 main 0 0 _________PP___ -1 21.9074 84.2647 TC 30 21.5999 84.6322 1 8 305
1903278N19086 1903 52 NI BB NOT_NAMED 1903-10-06 12:00:00 TS 21.9749 84.0909 main 0 0 _________OP___ -1 22.1000 83.9000 TC 30 21.8498 84.2819 1 8 304
1903278N19086 1903 52 NI BB NOT_NAMED 1903-10-06 15:00:00 TS 22.2212 83.7075 main 0 0 _________PO___ -1 22.3424 83.5149 TC 30 22.1000 83.9000 1 9 304
1903278N19086 1903 52 NI BB NOT_NAMED 1903-10-06 18:00:00 TS 22.4854 83.2879 main 0 0 _________OP___ -1 22.6000 83.1000 TC 30 22.3708 83.4759 1 10 303
1903278N19086 1903 52 NI BB NOT_NAMED 1903-10-06 21:00:00 TS 22.7517 82.8280 main 0 0 _________PP___ -1 22.8651 82.6276 TC 30 22.6382 83.0283 1 10 302
1903278N19086 1903 52 NI BB NOT_NAMED 1903-10-07 00:00:00 TS 22.9932 82.3958 main 0 0 _________OP___ -1 23.1000 82.2000 TC 30 22.8864 82.5915 1 8 302
1903278N19086 1903 52 NI BB NOT_NAMED 1903-10-07 03:00:00 TS 23.1861 82.0599 main 0 0 _________PO___ -1 23.2723 81.9198 TC 30 23.1000 82.2000 1 6 302
1903278N19086 1903 52 NI BB NOT_NAMED 1903-10-07 06:00:00 TS 23.3342 81.7974 main 0 0 _________OP___ -1 23.4000 81.7000 TC 30 23.2685 81.8949 1 5 299
1903278N19086 1903 52 NI BB NOT_NAMED 1903-10-07 09:00:00 TS 23.4546 81.5408 main 0 0 _________PP___ -1 23.5075 81.4424 TC 30 23.4018 81.6391 1 5 296
1903278N19086 1903 52 NI BB NOT_NAMED 1903-10-07 12:00:00 TS 23.5546 81.3069 main 0 0 _________OP___ -1 23.6000 81.2000 TC 30 23.5092 81.4139 1 5 296
1903278N19086 1903 52 NI BB NOT_NAMED 1903-10-07 15:00:00 TS 23.6537 81.1000 main 0 0 _________PO___ -1 23.7074 81.0000 TC 30 23.6000 81.2000 1 4 296
1903278N19086 1903 52 NI BB NOT_NAMED 1903-10-07 18:00:00 TS 23.7405 80.8918 main 0 0 _________OP___ -1 23.8000 80.8000 TC 30 23.6809 80.9836 1 4 290
1903278N19086 1903 52 NI BB NOT_NAMED 1903-10-07 21:00:00 TS 23.7997 80.6721 main 0 0 _________PP___ -1 23.8499 80.5724 TC 30 23.7495 80.7719 1 4 286
1903278N19086 1903 52 NI BB NOT_NAMED 1903-10-08 00:00:00 TS 23.8592 80.4246 main 0 0 _________OP___ -1 23.9000 80.3000 TC 30 23.8184 80.5492 1 5 286
1903278N19086 1903 52 NI BB NOT_NAMED 1903-10-08 03:00:00 TS 23.9425 80.1287 main 0 0 _________PO___ -1 23.9851 79.9575 TC 30 23.9000 80.3000 1 6 288
1903278N19086 1903 52 NI BB NOT_NAMED 1903-10-08 06:00:00 TS 24.0474 79.7877 main 0 0 _________OP___ -1 24.1000 79.6000 TC 30 23.9948 79.9754 1 7 290
1903278N19086 1903 52 NI BB NOT_NAMED 1903-10-08 09:00:00 TS 24.1703 79.4525 main 0 0 _________PP___ -1 24.2350 79.2775 TC 30 24.1056 79.6276 1 6 295
1903278N19086 1903 52 NI BB NOT_NAMED 1903-10-08 12:00:00 TS 24.3193 79.1455 main 0 0 _________OP___ -1 24.4000 79.0000 TC 30 24.2386 79.2910 1 6 302
1903278N19086 1903 52 NI BB NOT_NAMED 1903-10-08 15:00:00 TS 24.4925 78.8850 main 0 0 _________PO___ -1 24.5849 78.7700 TC 30 24.4000 79.0000 1 6 312
1903278N19086 1903 52 NI BB NOT_NAMED 1903-10-08 18:00:00 TS 24.7081 78.6797 main 0 0 _________OP___ -1 24.8000 78.6000 TC 30 24.6163 78.7593 1 6 324
1903278N19086 1903 52 NI BB NOT_NAMED 1903-10-08 21:00:00 TS 24.9573 78.5177 main 0 0 _________PP___ -1 25.0575 78.4625 TC 30 24.8571 78.5729 1 5 335
1903278N19086 1903 52 NI BB NOT_NAMED 1903-10-09 00:00:00 TS 25.1972 78.4250 main 0 0 _________OP___ -1 25.3000 78.4000 TC 30 25.0945 78.4500 1 4 346
1903278N19086 1903 52 NI BB NOT_NAMED 1903-10-09 03:00:00 TS 25.3900 78.4062 main 0 0 _________PO___ -1 25.4800 78.4124 TC 30 25.3000 78.4000 1 3 0
1903278N19086 1903 52 NI BB NOT_NAMED 1903-10-09 06:00:00 TS 25.5260 78.4516 main 0 0 _________OP___ -1 25.6000 78.5000 TC 30 25.4520 78.4033 1 3 31
1903278N19086 1903 52 NI BB NOT_NAMED 1903-10-09 09:00:00 TS 25.6161 78.5497 main 0 0 _________PP___ -1 25.6650 78.6200 TC 30 25.5672 78.4794 1 3 57
1903278N19086 1903 52 NI BB NOT_NAMED 1903-10-09 12:00:00 TS 25.6744 78.7080 main 0 0 _________OP___ -1 25.7000 78.8000 TC 30 25.6488 78.6159 1 4 71
1903278N19086 1903 52 NI BB NOT_NAMED 1903-10-09 15:00:00 TS 25.7325 78.9175 main 0 0 _________PO___ -1 25.7650 79.0349 TC 30 25.7000 78.8000 1 4 76
1903278N19086 1903 52 NI BB NOT_NAMED 1903-10-09 18:00:00 TS 25.7726 79.1575 main 0 0 _________OP___ -1 25.8000 79.3000 TC 30 25.7452 79.0149 1 4 86
1903278N19086 1903 52 NI BB NOT_NAMED 1903-10-09 21:00:00 TS 25.7664 79.4137 main 0 0 _________PP___ -1 25.7725 79.5575 TC 30 25.7603 79.2699 1 5 96
1903278N19086 1903 52 NI BB NOT_NAMED 1903-10-10 00:00:00 TS 25.7226 79.6700 main 0 0 _________OP___ -1 25.7000 79.8000 TC 30 25.7452 79.5399 1 5 104
1903278N19086 1903 52 NI BB NOT_NAMED 1903-10-10 03:00:00 TS 25.6537 79.9037 main 0 0 _________PO___ -1 25.6074 80.0075 TC 30 25.7000 79.8000 1 4 111
1903278N19086 1903 52 NI BB NOT_NAMED 1903-10-10 06:00:00 TS 25.5684 80.1093 main 0 0 _________OP___ -1 25.5000 80.2000 TC 30 25.6367 80.0185 1 4 116
1903278N19086 1903 52 NI BB NOT_NAMED 1903-10-10 09:00:00 TS 25.4761 80.3112 main 0 0 _________PP___ -1 25.4075 80.3999 TC 30 25.5448 80.2225 1 4 119
1903278N19086 1903 52 NI BB NOT_NAMED 1903-10-10 12:00:00 TS 25.3652 80.5077 main 0 0 _________OP___ -1 25.3000 80.6000 TC 30 25.4305 80.4153 1 4 125
1903278N19086 1903 52 NI BB NOT_NAMED 1903-10-10 15:00:00 TS 25.2288 80.7038 main 0 0 _________PO___ -1 25.1575 80.8075 TC 30 25.3000 80.6000 1 4 130
1903278N19086 1903 52 NI BB NOT_NAMED 1903-10-10 18:00:00 TS 25.0908 80.8740 main 0 0 _________OP___ -1 25.0000 81.0000 TC 30 25.1589 80.7795 1 4 133
1903278N19086 1903 52 NI BB NOT_NAMED 1903-10-10 21:00:00 TS 24.9451 81.0372 main 0 0 _________PP___ -1 24.8475 81.1600 TC 30 25.0102 80.9553 1 4 136
1903278N19086 1903 52 NI BB NOT_NAMED 1903-10-11 00:00:00 TS 24.8043 81.1856 main 0 0 _________OP___ -1 24.7000 81.3000 TC 30 24.8564 81.1284 1 3 136
1903278N19086 1903 52 NI BB NOT_NAMED 1903-10-11 03:00:00 NR 24.7000 81.3000 main 0 __________O___ -1 TC 24.7000 81.3000 1 3 135

IBTrACS Databaseについて

本データベースは、米国NOAAが公開する1842年以降の世界の熱帯低気圧のベストトラックデータアーカイブInternational Best Track Archive for Climate Stewardship (IBTrACS)を、ウェブで閲覧しやすい形式に変換したものです。

最終更新日:2021-10-08